createdAt,value
2023-05-14T00:01:53.701Z,77.36
2023-05-14T00:04:24.064Z,77.80
2023-05-14T00:06:52.804Z,77.61
2023-05-14T00:09:21.025Z,77.56
2023-05-14T00:11:49.600Z,77.31
2023-05-14T00:14:17.973Z,77.41
2023-05-14T00:16:46.145Z,77.61
2023-05-14T00:19:14.607Z,77.37
2023-05-14T00:21:44.349Z,77.02
2023-05-14T00:24:12.529Z,77.28
2023-05-14T00:26:40.731Z,76.82
2023-05-14T00:29:08.887Z,76.25
2023-05-14T00:31:37.345Z,76.26
2023-05-14T00:34:05.998Z,76.14
2023-05-14T00:36:34.172Z,76.72
2023-05-14T00:39:03.907Z,77.22
2023-05-14T00:41:32.133Z,76.78
2023-05-14T00:44:00.570Z,76.56
2023-05-14T00:46:29.097Z,76.62
2023-05-14T00:48:58.261Z,76.75
2023-05-14T00:51:27.268Z,76.57
2023-05-14T00:53:55.980Z,76.36
2023-05-14T00:56:26.729Z,75.75
2023-05-14T00:58:55.374Z,76.47
2023-05-14T01:01:23.685Z,76.34
2023-05-14T01:03:53.633Z,76.59
2023-05-14T01:06:33.942Z,76.05
2023-05-14T01:09:11.372Z,76.80
2023-05-14T01:11:52.489Z,76.35
2023-05-14T01:14:25.731Z,75.66
2023-05-14T01:16:58.918Z,76.40
2023-05-14T01:19:35.048Z,76.60
2023-05-14T01:22:05.650Z,75.67
2023-05-14T01:24:34.070Z,75.62
2023-05-14T01:27:11.956Z,76.09
2023-05-14T01:29:46.578Z,75.90
2023-05-14T01:32:16.794Z,75.87
2023-05-14T01:34:48.481Z,75.11
2023-05-14T01:37:18.399Z,75.60
2023-05-14T01:39:46.966Z,75.48
2023-05-14T01:42:15.693Z,76.03
2023-05-14T01:44:44.331Z,75.61
2023-05-14T01:47:12.540Z,76.20
2023-05-14T01:49:41.008Z,76.37
2023-05-14T01:52:09.662Z,76.61
2023-05-14T01:54:39.510Z,76.08
2023-05-14T01:57:07.849Z,76.65
2023-05-14T01:59:36.133Z,75.89
2023-05-14T02:02:04.326Z,76.62
2023-05-14T02:04:32.515Z,76.26
2023-05-14T02:07:00.772Z,76.90
2023-05-14T02:09:29.276Z,77.51
2023-05-14T02:11:58.926Z,77.40
2023-05-14T02:14:27.148Z,78.09
2023-05-14T02:16:55.471Z,77.77
2023-05-14T02:19:23.660Z,78.33
2023-05-14T02:21:51.920Z,77.62
2023-05-14T02:24:20.266Z,77.06
2023-05-14T02:26:48.585Z,78.03
2023-05-14T02:29:18.175Z,77.80
2023-05-14T02:31:46.679Z,77.56
2023-05-14T02:34:15.083Z,77.96
2023-05-14T02:36:43.442Z,77.90
2023-05-14T02:39:11.940Z,77.87
2023-05-14T02:41:40.144Z,77.59
2023-05-14T02:44:08.449Z,76.95
2023-05-14T02:46:38.109Z,77.95
2023-05-14T02:49:06.303Z,77.79
2023-05-14T02:51:34.589Z,77.37
2023-05-14T02:54:02.952Z,78.19
2023-05-14T02:56:31.134Z,77.42
2023-05-14T02:58:59.344Z,77.84
2023-05-14T03:01:28.018Z,78.26
2023-05-14T03:03:58.567Z,78.56
2023-05-14T03:06:26.784Z,77.80
2023-05-14T03:08:55.030Z,78.38
2023-05-14T03:11:23.364Z,78.12
2023-05-14T03:13:51.881Z,78.63
2023-05-14T03:16:20.091Z,79.31
2023-05-14T03:18:48.431Z,80.06
2023-05-14T03:21:18.124Z,79.82
2023-05-14T03:23:46.360Z,80.20
2023-05-14T03:26:14.517Z,81.04
2023-05-14T03:28:42.706Z,80.42
2023-05-14T03:31:10.970Z,80.76
2023-05-14T03:33:39.224Z,81.21
2023-05-14T03:36:07.818Z,81.03
2023-05-14T03:38:37.886Z,81.23
2023-05-14T03:41:06.089Z,81.09
2023-05-14T03:43:34.333Z,80.88
2023-05-14T03:46:02.503Z,80.39
2023-05-14T03:48:30.943Z,80.35
2023-05-14T03:50:59.234Z,80.08
2023-05-14T03:53:27.364Z,80.11
2023-05-14T03:55:57.026Z,80.33
2023-05-14T03:58:25.201Z,80.16
2023-05-14T04:00:54.816Z,79.96
2023-05-14T04:03:23.007Z,79.91
2023-05-14T04:05:52.325Z,79.67
2023-05-14T04:08:21.050Z,80.17
2023-05-14T04:10:49.249Z,80.21
2023-05-14T04:13:18.760Z,79.87
2023-05-14T04:15:47.023Z,79.89
2023-05-14T04:18:15.219Z,79.86
2023-05-14T04:20:43.419Z,79.98
2023-05-14T04:23:11.600Z,80.56
2023-05-14T04:25:39.800Z,79.79
2023-05-14T04:28:07.969Z,79.55
2023-05-14T04:30:37.438Z,79.18
2023-05-14T04:33:06.550Z,79.04
2023-05-14T04:35:34.700Z,78.75
2023-05-14T04:38:03.131Z,78.45
2023-05-14T04:40:31.914Z,78.61
2023-05-14T04:43:00.137Z,77.95
2023-05-14T04:45:28.374Z,77.31
2023-05-14T04:47:57.927Z,77.23
2023-05-14T04:50:26.518Z,77.14
2023-05-14T04:52:55.756Z,77.14
2023-05-14T04:55:24.195Z,76.66
2023-05-14T04:57:52.405Z,76.42
2023-05-14T05:00:22.029Z,76.97
2023-05-14T05:02:50.697Z,77.04
2023-05-14T05:05:20.647Z,77.45
2023-05-14T05:07:48.980Z,76.97
2023-05-14T05:10:17.154Z,77.99
2023-05-14T05:12:45.521Z,78.19
2023-05-14T05:15:13.718Z,78.42
2023-05-14T05:17:42.067Z,78.31
2023-05-14T05:20:11.739Z,78.45
2023-05-14T05:22:41.612Z,77.62
2023-05-14T05:25:12.088Z,77.44
2023-05-14T05:27:40.363Z,77.82
2023-05-14T05:30:10.156Z,77.56
2023-05-14T05:32:38.709Z,77.28
2023-05-14T05:35:08.043Z,77.81
2023-05-14T05:37:36.429Z,78.41
2023-05-14T05:40:08.003Z,77.93
2023-05-14T05:42:36.359Z,77.47
2023-05-14T05:45:05.331Z,76.83
2023-05-14T05:47:33.551Z,76.82
2023-05-14T05:50:02.937Z,76.55
2023-05-14T05:52:31.133Z,75.99
2023-05-14T05:54:59.425Z,75.68
2023-05-14T05:57:28.936Z,76.21
2023-05-14T05:59:57.120Z,75.44
2023-05-14T06:02:25.595Z,75.24
2023-05-14T06:04:53.798Z,75.47
2023-05-14T06:07:21.935Z,75.76
2023-05-14T06:09:50.049Z,75.75
2023-05-14T06:12:18.260Z,75.42
2023-05-14T06:14:48.215Z,74.72
2023-05-14T06:17:16.505Z,74.43
2023-05-14T06:19:44.765Z,74.43
2023-05-14T06:22:13.078Z,74.41
2023-05-14T06:24:41.383Z,73.60
2023-05-14T06:27:11.167Z,73.93
2023-05-14T06:29:39.361Z,74.27
2023-05-14T06:32:10.414Z,74.45
2023-05-14T06:34:38.645Z,75.38
2023-05-14T06:37:07.140Z,75.37
2023-05-14T06:39:35.361Z,74.50
2023-05-14T06:42:03.609Z,73.94
2023-05-14T06:44:32.678Z,73.90
2023-05-14T06:47:01.024Z,73.73
2023-05-14T06:49:30.675Z,73.18
2023-05-14T06:51:58.857Z,72.63
2023-05-14T06:54:27.161Z,71.96
2023-05-14T06:56:55.633Z,71.83
2023-05-14T06:59:23.960Z,71.28
2023-05-14T07:01:52.252Z,71.12
2023-05-14T07:04:20.671Z,70.60
2023-05-14T07:06:50.335Z,70.27
2023-05-14T07:09:18.568Z,69.71
2023-05-14T07:11:46.817Z,69.06
2023-05-14T07:14:15.041Z,68.31
2023-05-14T07:16:43.386Z,67.44
2023-05-14T07:19:11.674Z,66.96
2023-05-14T07:21:39.967Z,66.44
2023-05-14T07:24:10.015Z,66.96
2023-05-14T07:26:39.246Z,65.75
2023-05-14T07:29:08.009Z,65.76
2023-05-14T07:31:36.397Z,66.60
2023-05-14T07:34:04.688Z,66.05
2023-05-14T07:36:33.043Z,64.38
2023-05-14T07:39:01.413Z,64.64
2023-05-14T07:41:30.896Z,63.92
2023-05-14T07:43:59.127Z,64.37
2023-05-14T07:46:27.338Z,64.74
2023-05-14T07:48:55.816Z,64.76
2023-05-14T07:51:24.102Z,64.65
2023-05-14T07:53:52.282Z,62.85
2023-05-14T07:56:20.889Z,63.22
2023-05-14T07:58:51.742Z,62.89
2023-05-14T08:01:19.893Z,62.73
2023-05-14T08:03:48.316Z,61.93
2023-05-14T08:06:16.707Z,61.80
2023-05-14T08:08:44.915Z,61.74
2023-05-14T08:11:13.141Z,62.44
2023-05-14T08:13:41.628Z,61.91
2023-05-14T08:16:11.302Z,61.23
2023-05-14T08:18:39.581Z,60.60
2023-05-14T08:21:07.935Z,61.07
2023-05-14T08:23:36.365Z,60.58
2023-05-14T08:26:04.645Z,60.37
2023-05-14T08:28:32.756Z,60.21
2023-05-14T08:31:01.014Z,58.83
2023-05-14T08:33:30.590Z,58.21
2023-05-14T08:36:00.622Z,57.77
2023-05-14T08:38:28.893Z,58.55
2023-05-14T08:40:59.066Z,57.33
2023-05-14T08:43:31.849Z,53.95
2023-05-14T08:46:02.938Z,53.68
2023-05-14T08:48:34.658Z,53.09
2023-05-14T08:51:03.962Z,53.56
2023-05-14T08:53:32.877Z,53.83
2023-05-14T08:56:02.450Z,52.70
2023-05-14T08:58:30.597Z,54.07
2023-05-14T09:00:58.772Z,52.88
2023-05-14T09:03:27.784Z,53.50
2023-05-14T09:06:00.081Z,52.70
2023-05-14T09:08:28.512Z,51.75
2023-05-14T09:10:56.752Z,51.24
2023-05-14T09:13:26.913Z,50.27
2023-05-14T09:15:57.265Z,49.60
2023-05-14T09:18:26.154Z,49.82
2023-05-14T09:20:54.615Z,48.48
2023-05-14T09:23:27.311Z,48.61
2023-05-14T09:25:56.151Z,48.41
2023-05-14T09:28:28.075Z,49.08
2023-05-14T09:30:56.685Z,50.63
2023-05-14T09:33:28.997Z,50.10
2023-05-14T09:36:00.649Z,51.68
2023-05-14T09:38:34.087Z,51.91
2023-05-14T09:41:02.600Z,52.35
2023-05-14T09:43:30.840Z,52.66
2023-05-14T09:45:59.236Z,52.38
2023-05-14T09:48:27.759Z,53.61
2023-05-14T09:50:56.410Z,52.51
2023-05-14T09:53:24.646Z,51.24
2023-05-14T09:55:54.537Z,51.57
2023-05-14T09:58:22.832Z,51.48
2023-05-14T10:00:52.844Z,51.54
2023-05-14T10:03:23.563Z,50.76
2023-05-14T10:05:52.149Z,51.25
2023-05-14T10:08:30.169Z,52.47
2023-05-14T10:11:03.028Z,51.28
2023-05-14T10:13:38.563Z,50.46
2023-05-14T10:16:16.391Z,51.31
2023-05-14T10:18:52.906Z,51.88
2023-05-14T10:21:23.496Z,52.39
2023-05-14T10:23:52.232Z,53.41
2023-05-14T10:26:23.953Z,54.43
2023-05-14T10:28:52.626Z,53.31
2023-05-14T10:31:24.876Z,52.94
2023-05-14T10:33:54.701Z,53.64
2023-05-14T10:36:24.125Z,51.89
2023-05-14T10:38:58.035Z,52.33
2023-05-14T10:41:27.751Z,51.29
2023-05-14T10:44:00.759Z,52.74
2023-05-14T10:46:29.018Z,52.28
2023-05-14T10:48:58.469Z,51.71
2023-05-14T10:51:27.044Z,51.60
2023-05-14T10:53:55.987Z,52.95
2023-05-14T10:56:24.414Z,51.28
2023-05-14T10:58:59.227Z,52.24
2023-05-14T11:01:30.045Z,51.01
2023-05-14T11:03:59.956Z,51.47
2023-05-14T11:06:28.555Z,50.68
2023-05-14T11:08:57.185Z,48.91
2023-05-14T11:11:26.313Z,49.47
2023-05-14T11:13:56.330Z,49.78
2023-05-14T11:16:29.167Z,49.24
2023-05-14T11:19:03.794Z,49.49
2023-05-14T11:21:32.869Z,51.58
2023-05-14T11:24:01.809Z,50.46
2023-05-14T11:26:30.271Z,50.23
2023-05-14T11:29:00.338Z,50.27
2023-05-14T11:31:29.401Z,50.99
2023-05-14T11:33:58.001Z,50.64
2023-05-14T11:36:26.275Z,50.66
2023-05-14T11:38:54.442Z,50.17
2023-05-14T11:41:23.202Z,48.96
2023-05-14T11:43:51.960Z,48.20
2023-05-14T11:46:21.925Z,47.24
2023-05-14T11:48:50.119Z,46.94
2023-05-14T11:51:18.404Z,48.49
2023-05-14T11:53:47.728Z,48.41
2023-05-14T11:56:16.020Z,48.44
2023-05-14T11:58:49.983Z,47.21
2023-05-14T12:01:18.293Z,48.17
2023-05-14T12:03:48.189Z,46.74
2023-05-14T12:06:16.536Z,47.29
2023-05-14T12:08:44.707Z,47.54
2023-05-14T12:11:12.900Z,47.43
2023-05-14T12:13:41.273Z,45.41
2023-05-14T12:16:09.822Z,45.62
2023-05-14T12:18:38.818Z,45.43
2023-05-14T12:21:09.157Z,43.58
2023-05-14T12:23:39.648Z,44.85
2023-05-14T12:26:09.979Z,46.10
2023-05-14T12:28:43.384Z,44.07
2023-05-14T12:31:11.930Z,43.32
2023-05-14T12:33:40.205Z,43.24
2023-05-14T12:36:21.409Z,43.13
2023-05-14T12:38:51.069Z,42.38
2023-05-14T12:41:19.701Z,43.15
2023-05-14T12:43:50.181Z,43.47
2023-05-14T12:46:18.458Z,44.31
2023-05-14T12:48:47.334Z,43.84
2023-05-14T12:51:16.967Z,43.50
2023-05-14T12:53:45.223Z,42.18
2023-05-14T12:56:14.053Z,43.57
2023-05-14T12:58:42.936Z,41.72
2023-05-14T13:01:11.698Z,39.67
2023-05-14T13:03:40.005Z,40.15
2023-05-14T13:06:08.895Z,40.07
2023-05-14T13:08:38.510Z,41.49
2023-05-14T13:11:06.914Z,41.66
2023-05-14T13:13:35.318Z,39.50
2023-05-14T13:16:03.533Z,39.24
2023-05-14T13:18:32.213Z,39.86
2023-05-14T13:21:00.485Z,38.63
2023-05-14T13:23:28.675Z,40.63
2023-05-14T13:25:58.252Z,38.33
2023-05-14T13:28:26.442Z,38.14
2023-05-14T13:31:07.332Z,38.77
2023-05-14T13:33:43.023Z,36.11
2023-05-14T13:36:12.761Z,39.64
2023-05-14T13:38:41.365Z,40.65
2023-05-14T13:41:10.967Z,38.32
2023-05-14T13:43:39.262Z,38.20
2023-05-14T13:46:08.289Z,39.96
2023-05-14T13:48:37.405Z,41.16
2023-05-14T13:51:05.695Z,40.86
2023-05-14T13:53:33.907Z,40.22
2023-05-14T13:56:02.171Z,41.42
2023-05-14T13:58:31.863Z,41.18
2023-05-14T14:01:00.181Z,42.62
2023-05-14T14:03:28.412Z,40.91
2023-05-14T14:05:56.609Z,40.44
2023-05-14T14:08:25.013Z,40.86
2023-05-14T14:10:55.210Z,40.35
2023-05-14T14:13:24.436Z,39.71
2023-05-14T14:15:54.204Z,40.15
2023-05-14T14:18:22.607Z,40.48
2023-05-14T14:20:50.904Z,39.88
2023-05-14T14:23:20.001Z,40.01
2023-05-14T14:25:48.164Z,40.73
2023-05-14T14:28:16.485Z,40.11
2023-05-14T14:30:45.057Z,39.71
2023-05-14T14:33:14.631Z,39.99
2023-05-14T14:35:43.356Z,41.46
2023-05-14T14:38:11.609Z,38.84
2023-05-14T14:40:40.222Z,38.83
2023-05-14T14:43:08.693Z,40.94
2023-05-14T14:45:37.050Z,39.65
2023-05-14T14:48:31.431Z,40.67
2023-05-14T14:50:59.992Z,39.76
2023-05-14T14:53:28.443Z,38.81
2023-05-14T14:55:57.810Z,40.32
2023-05-14T14:58:26.517Z,41.84
2023-05-14T15:00:58.104Z,41.36
2023-05-14T15:03:27.782Z,42.27
2023-05-14T15:05:56.118Z,41.75
2023-05-14T15:08:27.538Z,41.97
2023-05-14T15:10:56.246Z,42.75
2023-05-14T15:13:25.734Z,43.03
2023-05-14T15:15:54.345Z,44.38
2023-05-14T15:18:22.697Z,43.72
2023-05-14T15:20:52.985Z,44.55
2023-05-14T15:23:21.169Z,45.97
2023-05-14T15:25:50.014Z,45.26
2023-05-14T15:28:18.503Z,46.31
2023-05-14T15:30:49.268Z,46.83
2023-05-14T15:33:19.236Z,46.14
2023-05-14T15:35:47.765Z,48.03
2023-05-14T15:38:17.499Z,48.31
2023-05-14T15:40:45.847Z,48.19
2023-05-14T15:43:14.018Z,48.71
2023-05-14T15:45:42.211Z,49.98
2023-05-14T15:48:10.500Z,49.71
2023-05-14T15:50:39.391Z,50.61
2023-05-14T15:53:07.606Z,50.80
2023-05-14T15:55:37.176Z,50.92
2023-05-14T15:58:05.489Z,51.53
2023-05-14T16:00:33.835Z,51.97
2023-05-14T16:03:02.124Z,51.84
2023-05-14T16:05:30.871Z,52.32
2023-05-14T16:07:59.941Z,51.33
2023-05-14T16:10:28.074Z,51.47
2023-05-14T16:12:57.660Z,51.13
2023-05-14T16:15:25.894Z,50.97
2023-05-14T16:17:54.217Z,51.71
2023-05-14T16:20:23.128Z,52.38
2023-05-14T16:22:51.666Z,52.41
2023-05-14T16:25:19.835Z,53.04
2023-05-14T16:27:48.113Z,53.20
2023-05-14T16:30:18.305Z,52.39
2023-05-14T16:32:49.424Z,53.40
2023-05-14T16:35:17.697Z,52.97
2023-05-14T16:37:45.969Z,52.41
2023-05-14T16:40:16.164Z,53.58
2023-05-14T16:42:46.068Z,52.89
2023-05-14T16:45:17.637Z,52.37
2023-05-14T16:47:45.976Z,52.22
2023-05-14T16:50:14.288Z,52.98
2023-05-14T16:52:42.670Z,52.55
2023-05-14T16:55:11.472Z,52.61
2023-05-14T16:57:39.729Z,52.80
2023-05-14T17:00:09.859Z,53.44
2023-05-14T17:02:39.510Z,53.71
2023-05-14T17:05:09.344Z,54.32
2023-05-14T17:07:39.322Z,54.88
2023-05-14T17:10:09.322Z,56.00
2023-05-14T17:12:37.621Z,56.42
2023-05-14T17:15:08.136Z,56.88
2023-05-14T17:17:36.413Z,57.33
2023-05-14T17:20:07.483Z,57.78
2023-05-14T17:22:36.206Z,58.81
2023-05-14T17:25:05.385Z,58.77
2023-05-14T17:27:33.836Z,58.83
2023-05-14T17:30:02.286Z,59.43
2023-05-14T17:32:31.206Z,59.90
2023-05-14T17:34:59.640Z,58.62
2023-05-14T17:37:29.312Z,59.31
2023-05-14T17:39:57.525Z,59.50
2023-05-14T17:42:25.830Z,60.15
2023-05-14T17:44:54.513Z,60.04
2023-05-14T17:47:22.901Z,61.14
2023-05-14T17:49:51.849Z,60.53
2023-05-14T17:52:20.105Z,62.15
2023-05-14T17:54:49.595Z,61.05
2023-05-14T17:57:18.030Z,62.29
2023-05-14T17:59:46.236Z,62.63
2023-05-14T18:02:14.386Z,62.67
2023-05-14T18:04:42.662Z,63.34
2023-05-14T18:07:10.915Z,63.41
2023-05-14T18:09:39.224Z,63.62
2023-05-14T18:12:10.000Z,63.60
2023-05-14T18:14:38.109Z,63.66
2023-05-14T18:17:07.005Z,63.76
2023-05-14T18:19:35.188Z,64.24
2023-05-14T18:22:03.358Z,64.43
2023-05-14T18:24:31.551Z,64.87
2023-05-14T18:27:00.509Z,65.30
2023-05-14T18:29:30.149Z,65.55
2023-05-14T18:31:58.432Z,65.83
2023-05-14T18:34:26.645Z,66.43
2023-05-14T18:36:55.158Z,66.93
2023-05-14T18:39:23.837Z,67.68
2023-05-14T18:41:52.151Z,66.95
2023-05-14T18:44:20.411Z,66.62
2023-05-14T18:46:50.413Z,67.85
2023-05-14T18:49:18.650Z,67.92
2023-05-14T18:51:47.058Z,68.33
2023-05-14T18:54:15.791Z,67.81
2023-05-14T18:56:47.384Z,67.89
2023-05-14T18:59:15.853Z,68.26
2023-05-14T19:01:44.101Z,68.69
2023-05-14T19:04:13.689Z,68.28
2023-05-14T19:06:42.457Z,68.55
2023-05-14T19:09:10.891Z,68.78
2023-05-14T19:11:39.074Z,69.26
2023-05-14T19:14:07.274Z,69.10
2023-05-14T19:16:35.491Z,68.43
2023-05-14T19:19:03.728Z,68.55
2023-05-14T19:21:33.253Z,68.78
2023-05-14T19:24:01.399Z,69.28
2023-05-14T19:26:29.716Z,69.07
2023-05-14T19:28:59.003Z,69.07
2023-05-14T19:31:27.825Z,69.58
2023-05-14T19:33:56.250Z,69.36
2023-05-14T19:36:24.710Z,70.05
2023-05-14T19:38:54.280Z,70.18
2023-05-14T19:41:23.069Z,70.25
2023-05-14T19:43:51.306Z,70.73
2023-05-14T19:46:19.677Z,71.06
2023-05-14T19:48:48.528Z,70.78
2023-05-14T19:51:16.725Z,70.52
2023-05-14T19:53:45.209Z,70.78
2023-05-14T19:56:15.364Z,71.30
2023-05-14T19:58:44.204Z,71.40
2023-05-14T20:01:12.730Z,71.77
2023-05-14T20:03:40.992Z,71.55
2023-05-14T20:06:09.558Z,71.72
2023-05-14T20:08:37.748Z,71.75
2023-05-14T20:11:06.096Z,71.91
2023-05-14T20:13:38.540Z,70.71
2023-05-14T20:16:07.429Z,70.91
2023-05-14T20:18:35.911Z,70.83
2023-05-14T20:21:04.096Z,70.56
2023-05-14T20:23:32.376Z,70.55
2023-05-14T20:26:01.854Z,71.01
2023-05-14T20:28:30.019Z,71.00
2023-05-14T20:31:00.256Z,71.37
2023-05-14T20:33:29.194Z,71.17
2023-05-14T20:35:57.631Z,70.99
2023-05-14T20:38:29.225Z,71.52
2023-05-14T20:40:57.580Z,71.17
2023-05-14T20:43:27.393Z,70.74
2023-05-14T20:45:59.243Z,70.65
2023-05-14T20:48:28.965Z,70.75
2023-05-14T20:50:57.171Z,70.75
2023-05-14T20:53:25.724Z,70.61
2023-05-14T20:55:53.817Z,70.66
2023-05-14T20:58:22.009Z,69.77
2023-05-14T21:00:50.254Z,69.71
2023-05-14T21:03:18.532Z,70.63
2023-05-14T21:05:48.186Z,70.89
2023-05-14T21:08:17.074Z,71.27
2023-05-14T21:10:45.285Z,71.02
2023-05-14T21:13:13.505Z,70.83
2023-05-14T21:15:41.705Z,71.10
2023-05-14T21:18:10.121Z,71.49
2023-05-14T21:20:38.691Z,71.44
2023-05-14T21:23:08.301Z,71.92
2023-05-14T21:25:36.659Z,71.92
2023-05-14T21:28:04.944Z,72.39
2023-05-14T21:30:33.223Z,72.09
2023-05-14T21:33:01.419Z,71.76
2023-05-14T21:35:29.722Z,71.16
2023-05-14T21:37:57.969Z,71.80
2023-05-14T21:40:27.475Z,72.58
2023-05-14T21:42:55.766Z,73.51
2023-05-14T21:45:24.088Z,73.22
2023-05-14T21:47:52.703Z,72.59
2023-05-14T21:50:21.152Z,72.42
2023-05-14T21:52:49.284Z,72.92
2023-05-14T21:55:17.600Z,72.50
2023-05-14T21:57:47.161Z,72.35
2023-05-14T22:00:23.180Z,71.95
2023-05-14T22:02:52.050Z,72.54
2023-05-14T22:05:20.515Z,72.40
2023-05-14T22:07:49.486Z,72.45
2023-05-14T22:10:18.176Z,72.06
2023-05-14T22:12:47.704Z,71.65
2023-05-14T22:15:15.904Z,71.66
2023-05-14T22:17:44.133Z,71.35
2023-05-14T22:20:12.660Z,71.47
2023-05-14T22:22:40.995Z,71.64
2023-05-14T22:25:10.169Z,71.48
2023-05-14T22:27:38.317Z,71.42
2023-05-14T22:30:09.940Z,71.14
2023-05-14T22:32:38.288Z,71.12
2023-05-14T22:35:07.024Z,70.98
2023-05-14T22:37:35.184Z,70.84
2023-05-14T22:40:05.361Z,71.67
2023-05-14T22:42:33.483Z,71.72
2023-05-14T22:45:01.630Z,71.58
2023-05-14T22:47:31.439Z,71.66
2023-05-14T22:49:59.684Z,71.56
2023-05-14T22:52:28.327Z,71.52
2023-05-14T22:54:56.564Z,71.90
2023-05-14T22:57:25.230Z,71.75
2023-05-14T22:59:53.445Z,72.07
2023-05-14T23:02:21.847Z,71.99
2023-05-14T23:04:51.942Z,72.07
2023-05-14T23:07:20.434Z,72.13
2023-05-14T23:09:48.695Z,73.18
2023-05-14T23:12:16.919Z,73.34
2023-05-14T23:14:45.190Z,73.09
2023-05-14T23:17:13.446Z,73.06
2023-05-14T23:19:41.778Z,72.65
2023-05-14T23:22:11.359Z,72.92
2023-05-14T23:24:39.715Z,72.78
2023-05-14T23:27:08.438Z,73.19
2023-05-14T23:29:36.635Z,73.88
2023-05-14T23:32:05.208Z,73.51
2023-05-14T23:34:34.716Z,74.07
2023-05-14T23:37:03.060Z,73.71
2023-05-14T23:39:32.881Z,73.74
2023-05-14T23:42:01.156Z,73.67
2023-05-14T23:44:29.345Z,73.85
2023-05-14T23:46:57.513Z,74.12
2023-05-14T23:49:25.942Z,74.08
2023-05-14T23:51:54.512Z,74.10
2023-05-14T23:54:22.748Z,73.96
2023-05-14T23:56:52.968Z,74.22
2023-05-14T23:59:21.124Z,74.14
